CheckWX is a tool to help pilots better visualize weather data.  It is not intended as a substitute for an official pre-flight weather briefing.

18:15:00 UTC

LEJR METAR
Jerez Airport
Jerez de la Forntera, Spain
Current

45 mins ago

LEJR 211730Z 20006KT 9999 FEW010 15/15 Q1009
Observed
Nov-21 @ 17:30 UTC
Wind
  • 200° at 6 KTS
Visibility
10,000+ meters
Flight Rules
VFR
Cloud Levels
  • Few at 1,000' AGL
Temperature
15°C / 59°F
Dewpoint
15°C / 59°F
Humidity
100%
Altimeter
29.79" Hg
Pressure
1008.92 hPa
Previous

1 hour ago

LEJR 211700Z 20006KT 9999 FEW010 15/15 Q1008
Observed
Nov-21 @ 17:00 UTC
Wind
  • 200° at 6 KTS
Visibility
10,000+ meters
Flight Rules
VFR
Cloud Levels
  • Few at 1,000' AGL
Temperature
15°C / 59°F
Dewpoint
15°C / 59°F
Humidity
100%
Altimeter
29.76" Hg
Pressure
1007.92 hPa
Previous

2 hours ago

LEJR 211630Z 20006KT 9999 FEW007 SCT048 16/15 Q1008
Observed
Nov-21 @ 16:30 UTC
Wind
  • 200° at 6 KTS
Visibility
10,000+ meters
Flight Rules
VFR
Cloud Levels
  • Few at 700' AGL
  • Scattered at 4,800' AGL
Temperature
16°C / 61°F
Dewpoint
15°C / 59°F
Humidity
94%
Altimeter
29.76" Hg
Pressure
1007.92 hPa